Accueil
METAR-TAF:

METAR-TAF

Aéroports :

Touho, Nouvelle-Calédonie

Aérodrome de Touho

latitude: 20-47-25S, longitude: 165-15-34E, altitude: 3 m

METAR: absent

Heure: 22:20 (11:20 UTC)

Prévision

Le bulletin a été fait il y a 18 heures et 20 minutes, à 17:00 UTC
Prévision valable du 20 à 18 UTC au 21 à 18 UTC
Vent 10 kt de sud-est
Visibilité 10 km ou plus
Nuages épars à une hauteur de 2500 ft
Nuages fragmentés à une hauteur de 3500 ft
Temporairement
du 20 à 18 UTC au 21 à 06 UTC
Visibilité: 4000 m
Quelques nuages à une hauteur de 2000 ft, Cumulus congestus.
averses de pluie

TAF: NWWU 201700Z 2018/2118 13010KT 9999 SCT025 BKN035 TEMPO 2018/2106 4000 SHRA FEW020TCU

Observations et prévisions météorologiques de plus de 4000 aéroports (messages METAR et TAF).

Les stations disponibles sont représentées par des disques jaunes et rouges sur la carte.

Passer la souris dessus pour voir le nom de la station.

Cliquer dessus pour voir les observations et prévisions météorologiques.

Pour changer de carte: cliquez sur les boutons verts avec une croix noire pour zoomer, sur le bouton vert avec un tiret pour effectuer un zoom arrière, ou sur les flèches vertes pour les cartes adjacentes.


METAR-TAF: